Time;durP1;ratioP1;P1;durP2;ratioP2;P2;SDS_P1;SDS_P2;PMS_P1;PMS_P2;Temp;Humidity;BMP_temperature;BMP_pressure;BME280_temperature;BME280_humidity;BME280_pressure;Samples;Min_cycle;Max_cycle;Signal;HPM_P1;HPM_P2
2022/08/13 00:01:36;;;;;;;9.93;3.45;;;;;;;18.52;53.12;101506.94;5032393;28;20041;-65
2022/08/13 00:04:03;;;;;;;3.42;2.88;;;;;;;18.46;54.12;101513.88;5042350;28;20069;-66
2022/08/13 00:09:06;;;;;;;8.13;3.53;;;;;;;18.41;55.04;101513.44;5047781;28;20090;-69
2022/08/13 00:14:23;;;;;;;4.93;2.85;;;;;;;18.31;56.24;101529.09;5035049;28;20025;-65
2022/08/13 00:16:54;;;;;;;4.47;3.35;;;;;;;18.22;56.41;101513.44;5030913;28;20045;-65
2022/08/13 00:19:20;;;;;;;4.75;3.08;;;;;;;18.19;56.60;101517.38;5027363;28;20045;-64
2022/08/13 00:21:47;;;;;;;4.80;3.00;;;;;;;18.09;56.54;101511.84;5025337;28;20041;-66
2022/08/13 00:24:13;;;;;;;5.65;3.17;;;;;;;18.06;56.33;101514.03;5043207;28;20067;-65
2022/08/13 00:26:38;;;;;;;6.07;3.58;;;;;;;18.01;58.23;101519.09;5034313;28;20542;-66
2022/08/13 00:29:04;;;;;;;7.63;3.38;;;;;;;18.03;56.93;101520.66;5027190;28;20041;-66
2022/08/13 00:31:31;;;;;;;4.60;3.38;;;;;;;18.01;57.57;101519.09;5042628;28;20250;-66
2022/08/13 00:33:57;;;;;;;6.50;3.50;;;;;;;17.92;57.33;101511.69;5041435;28;20036;-67
2022/08/13 00:36:23;;;;;;;5.47;3.25;;;;;;;17.91;56.43;101516.31;5036168;28;20040;-69
2022/08/13 00:38:52;;;;;;;3.97;3.10;;;;;;;17.87;57.21;101519.50;5025323;28;20029;-68
2022/08/13 00:44:04;;;;;;;7.78;3.65;;;;;;;17.79;57.46;101518.31;5041950;28;20033;-65
2022/08/13 00:46:31;;;;;;;6.10;3.60;;;;;;;17.76;57.28;101517.72;5033187;28;20116;-65
2022/08/13 00:48:57;;;;;;;5.55;3.63;;;;;;;17.71;57.33;101512.59;5028995;28;20143;-66
2022/08/13 00:51:26;;;;;;;4.85;3.60;;;;;;;17.67;57.49;101516.66;5046786;28;20459;-65
2022/08/13 00:53:54;;;;;;;4.95;3.67;;;;;;;17.62;57.40;101516.19;5047165;28;20500;-67
2022/08/13 00:56:22;;;;;;;5.88;3.50;;;;;;;17.58;57.78;101517.53;5043008;28;20080;-66
2022/08/13 00:58:49;;;;;;;9.00;3.70;;;;;;;17.57;58.10;101522.13;5026586;28;20042;-65
2022/08/13 01:01:15;;;;;;;5.55;3.50;;;;;;;17.53;57.62;101528.94;5035921;28;20043;-64
2022/08/13 01:03:41;;;;;;;10.57;3.95;;;;;;;17.50;57.90;101528.34;5044110;28;20676;-66
2022/08/13 01:06:08;;;;;;;8.75;3.58;;;;;;;17.46;57.57;101529.63;5025943;28;20033;-65
2022/08/13 01:08:40;;;;;;;5.90;4.22;;;;;;;17.40;57.51;101520.06;5024908;28;20567;-65
2022/08/13 01:11:13;;;;;;;6.20;4.03;;;;;;;17.38;57.24;101523.94;5040725;28;20127;-67
2022/08/13 01:13:43;;;;;;;5.53;4.10;;;;;;;17.34;58.04;101524.22;5027670;28;20041;-67
2022/08/13 01:18:40;;;;;;;6.20;3.80;;;;;;;17.26;58.54;101517.69;4989810;28;20076;-66
2022/08/13 01:21:33;;;;;;;6.60;3.33;;;;;;;17.26;58.35;101524.06;5005969;28;20087;-66
2022/08/13 01:23:59;;;;;;;5.93;3.47;;;;;;;17.25;59.19;101526.94;4987886;28;20078;-66
2022/08/13 01:26:24;;;;;;;7.78;3.78;;;;;;;17.19;59.20;101524.72;4987798;28;20687;-66
2022/08/13 01:28:51;;;;;;;5.18;3.42;;;;;;;17.16;59.16;101525.91;4993197;28;20483;-65
2022/08/13 01:31:18;;;;;;;7.57;4.68;;;;;;;17.11;59.07;101535.53;5000166;28;20107;-67
2022/08/13 01:33:46;;;;;;;4.85;4.25;;;;;;;17.02;59.41;101527.13;5004431;28;20165;-65
2022/08/13 01:36:12;;;;;;;6.35;3.78;;;;;;;17.01;59.43;101532.75;4986364;28;20128;-66
2022/08/13 01:38:40;;;;;;;6.30;4.40;;;;;;;16.96;59.49;101535.03;5005307;28;20504;-65
2022/08/13 01:41:08;;;;;;;8.57;4.43;;;;;;;16.91;59.47;101529.94;4993637;28;20137;-66
2022/08/13 01:43:37;;;;;;;10.50;4.40;;;;;;;16.88;59.66;101535.72;4989428;28;20038;-65
2022/08/13 01:46:05;;;;;;;6.05;4.00;;;;;;;16.82;60.04;101530.75;5000172;28;20029;-65
2022/08/13 01:51:24;;;;;;;4.90;4.15;;;;;;;16.75;61.31;101524.94;4986006;28;20113;-65
2022/08/13 01:53:54;;;;;;;5.25;3.72;;;;;;;16.74;60.49;101530.53;4985912;28;20050;-65
2022/08/13 01:56:24;;;;;;;6.93;4.18;;;;;;;16.61;60.93;101527.97;4986262;28;20039;-69
2022/08/13 01:58:51;;;;;;;5.13;4.47;;;;;;;16.62;60.32;101521.47;4986596;28;20096;-66
2022/08/13 02:01:17;;;;;;;7.78;4.80;;;;;;;16.61;60.86;101524.38;4991985;28;20042;-65
2022/08/13 02:03:46;;;;;;;6.55;3.85;;;;;;;16.59;61.48;101522.59;5002880;28;20136;-65
2022/08/13 02:06:12;;;;;;;4.82;4.32;;;;;;;16.57;61.48;101523.75;4985900;28;20042;-65
2022/08/13 02:08:40;;;;;;;7.38;4.90;;;;;;;16.52;61.06;101521.41;4988300;28;20045;-65
2022/08/13 02:11:06;;;;;;;5.03;4.35;;;;;;;16.48;62.18;101522.69;4995775;28;20513;-65
2022/08/13 02:13:31;;;;;;;6.32;4.45;;;;;;;16.44;61.59;101523.94;4988513;28;20041;-67
2022/08/13 02:15:57;;;;;;;5.75;4.75;;;;;;;16.39;61.72;101519.84;5000862;28;20613;-65
2022/08/13 02:18:26;;;;;;;7.65;4.25;;;;;;;16.38;61.74;101526.34;4986527;28;20047;-65
2022/08/13 02:20:57;;;;;;;6.00;4.03;;;;;;;16.35;61.96;101518.38;4984986;28;20041;-67
2022/08/13 02:23:27;;;;;;;5.15;4.15;;;;;;;16.33;61.45;101522.13;4985014;28;20038;-66
2022/08/13 02:25:53;;;;;;;6.20;4.43;;;;;;;16.32;61.67;101523.13;4986302;28;20418;-66
2022/08/13 02:28:21;;;;;;;7.00;4.85;;;;;;;16.29;61.43;101519.78;4985569;28;20077;-65
2022/08/13 02:30:48;;;;;;;10.15;5.05;;;;;;;16.24;61.14;101522.91;4992227;28;20549;-65
2022/08/13 02:33:14;;;;;;;7.65;5.18;;;;;;;16.20;62.64;101521.44;5004643;28;20120;-65
2022/08/13 02:35:42;;;;;;;5.32;4.80;;;;;;;16.17;62.53;101520.81;4995413;28;20104;-66
2022/08/13 02:38:11;;;;;;;6.03;4.18;;;;;;;16.14;62.32;101523.84;4985633;28;20104;-65
2022/08/13 02:43:22;;;;;;;7.75;4.97;;;;;;;16.07;62.25;101518.84;4986090;28;20053;-65
2022/08/13 02:45:48;;;;;;;5.60;4.95;;;;;;;16.06;63.10;101521.72;4985902;28;20022;-65
2022/08/13 02:48:17;;;;;;;8.13;4.78;;;;;;;16.02;62.71;101520.25;4985766;28;20044;-67
2022/08/13 02:50:45;;;;;;;6.97;5.47;;;;;;;15.97;62.90;101519.78;4984861;28;20059;-66
2022/08/13 02:53:13;;;;;;;5.97;5.05;;;;;;;15.92;63.47;101517.41;4988820;28;20084;-65
2022/08/13 02:55:41;;;;;;;9.18;4.55;;;;;;;15.95;63.15;101521.78;4989489;28;20038;-65
2022/08/13 02:58:07;;;;;;;9.38;4.50;;;;;;;15.91;63.85;101518.41;4989181;28;20127;-67
2022/08/13 03:00:33;;;;;;;8.93;5.45;;;;;;;15.87;63.20;101518.81;5000087;28;20042;-65
2022/08/13 03:02:59;;;;;;;7.32;5.10;;;;;;;15.86;62.66;101522.56;5009133;28;20033;-65
2022/08/13 03:05:24;;;;;;;6.78;5.25;;;;;;;15.84;63.19;101521.78;4987696;28;20445;-65
2022/08/13 03:07:50;;;;;;;7.75;5.03;;;;;;;15.84;63.78;101530.03;4989247;28;20065;-66
2022/08/13 03:10:17;;;;;;;7.97;5.30;;;;;;;15.80;63.96;101516.56;4988699;28;20396;-66
2022/08/13 03:12:47;;;;;;;6.68;4.80;;;;;;;15.78;63.95;101520.44;5002170;28;20061;-67
2022/08/13 03:15:14;;;;;;;7.30;4.88;;;;;;;15.76;64.16;101523.31;4989190;28;20039;-65
2022/08/13 03:17:41;;;;;;;10.15;5.32;;;;;;;15.74;63.85;101513.47;4989060;28;20050;-66
2022/08/13 03:20:10;;;;;;;8.68;5.15;;;;;;;15.73;63.92;101525.44;4988923;28;20052;-67
2022/08/13 03:22:52;;;;;;;7.25;5.20;;;;;;;15.71;63.00;101521.94;4988258;28;20041;-66
2022/08/13 03:25:20;;;;;;;6.53;5.40;;;;;;;15.66;64.20;101527.81;5000073;28;20048;-65
2022/08/13 03:27:46;;;;;;;8.63;5.25;;;;;;;15.63;63.52;101524.44;4988636;28;20936;-67
2022/08/13 03:30:14;;;;;;;8.00;5.88;;;;;;;15.59;64.11;101521.06;4989086;28;20048;-66
2022/08/13 03:32:41;;;;;;;8.70;5.53;;;;;;;15.57;63.66;101520.31;5005679;28;20048;-65
2022/08/13 03:35:12;;;;;;;10.15;5.70;;;;;;;15.55;62.99;101522.31;4994101;28;20104;-65
2022/08/13 03:37:38;;;;;;;9.93;6.20;;;;;;;15.53;63.53;101527.06;4988333;28;20045;-66
2022/08/13 03:40:05;;;;;;;7.30;5.97;;;;;;;15.53;63.36;101521.59;4998733;28;20029;-66
2022/08/13 03:42:31;;;;;;;7.55;5.28;;;;;;;15.54;63.37;101518.72;4988567;28;20041;-66
2022/08/13 03:44:56;;;;;;;8.63;6.03;;;;;;;15.54;63.40;101531.56;4989584;28;20058;-65
2022/08/13 03:47:22;;;;;;;14.38;5.90;;;;;;;15.48;64.19;101521.06;4996527;28;20477;-66
2022/08/13 03:49:48;;;;;;;8.02;5.97;;;;;;;15.43;63.19;101523.31;4999462;28;20087;-65
2022/08/13 03:52:13;;;;;;;7.93;5.43;;;;;;;15.42;63.58;101519.72;5007387;28;20034;-65
2022/08/13 03:54:40;;;;;;;8.70;6.00;;;;;;;15.39;63.76;101525.47;5008185;28;20041;-68
2022/08/13 03:57:05;;;;;;;8.55;6.70;;;;;;;15.36;63.77;101522.09;5001368;28;20042;-69
2022/08/13 03:59:31;;;;;;;8.35;6.05;;;;;;;15.35;63.79;101514.88;4989093;28;20473;-66
2022/08/13 04:02:01;;;;;;;9.40;6.30;;;;;;;15.29;64.56;101519.88;4999161;28;20472;-67
2022/08/13 04:04:27;;;;;;;7.75;5.50;;;;;;;15.31;63.96;101522.47;5000959;28;20041;-65
2022/08/13 04:06:53;;;;;;;7.80;5.85;;;;;;;15.29;63.93;101518.97;4992900;28;20056;-68
2022/08/13 04:09:18;;;;;;;8.93;6.57;;;;;;;15.24;64.40;101519.34;4996233;28;20062;-65
2022/08/13 04:11:46;;;;;;;8.00;5.57;;;;;;;15.24;63.94;101513.84;4988326;28;20050;-65
2022/08/13 04:14:12;;;;;;;11.73;6.35;;;;;;;15.22;64.30;101517.75;4995416;28;20117;-65
2022/08/13 04:16:40;;;;;;;7.97;5.85;;;;;;;15.19;64.33;101517.97;4994497;28;20133;-66
2022/08/13 04:19:06;;;;;;;12.02;6.47;;;;;;;15.14;64.10;101515.59;4987876;28;20034;-67
2022/08/13 04:21:37;;;;;;;8.73;5.97;;;;;;;15.15;63.76;101519.22;5007206;28;20052;-66
2022/08/13 04:24:03;;;;;;;8.02;6.22;;;;;;;15.13;64.54;101518.47;5022303;28;20084;-65
2022/08/13 04:26:30;;;;;;;10.20;6.75;;;;;;;15.13;64.96;101524.84;5006646;28;20041;-65
2022/08/13 04:28:57;;;;;;;9.57;7.05;;;;;;;15.11;64.50;101526.84;4988555;28;20098;-65
2022/08/13 04:31:23;;;;;;;10.27;6.53;;;;;;;15.12;65.02;101530.44;4994236;28;20049;-65
2022/08/13 04:33:49;;;;;;;12.65;7.03;;;;;;;15.10;65.01;101527.81;5005152;28;20557;-67
2022/08/13 04:36:14;;;;;;;7.50;6.70;;;;;;;15.10;64.90;101526.94;4987427;28;20481;-65
2022/08/13 04:38:39;;;;;;;8.18;6.53;;;;;;;15.10;65.82;101530.56;5002920;28;20048;-66
2022/08/13 04:41:05;;;;;;;11.15;7.10;;;;;;;15.07;64.82;101525.34;5007283;28;20124;-66
2022/08/13 04:43:30;;;;;;;17.73;7.20;;;;;;;15.06;65.29;101526.31;5004494;28;20038;-65
2022/08/13 04:46:00;;;;;;;10.00;6.80;;;;;;;15.08;64.97;101531.69;4999823;28;20144;-70
2022/08/13 04:48:32;;;;;;;9.45;7.40;;;;;;;15.08;65.75;101528.94;4987924;28;20070;-66
2022/08/13 04:50:58;;;;;;;10.02;7.03;;;;;;;15.09;66.05;101531.56;5001662;28;20128;-66
2022/08/13 04:53:33;;;;;;;12.00;6.68;;;;;;;15.10;66.07;101530.56;4986379;28;20173;-66
2022/08/13 04:56:01;;;;;;;9.10;7.30;;;;;;;15.04;66.49;101533.78;4986884;28;20045;-66
2022/08/13 04:58:32;;;;;;;10.50;7.30;;;;;;;15.05;66.04;101535.53;4987012;28;20038;-68
2022/08/13 05:00:59;;;;;;;9.43;7.57;;;;;;;15.03;66.46;101532.94;4993845;28;20488;-68
2022/08/13 05:03:25;;;;;;;8.82;6.97;;;;;;;15.07;66.27;101535.44;5006423;28;20025;-65
2022/08/13 05:05:52;;;;;;;11.48;7.55;;;;;;;15.05;67.18;101538.28;5004977;28;20049;-67
2022/08/13 05:08:18;;;;;;;8.95;7.55;;;;;;;15.06;66.28;101537.28;5006791;28;20398;-66
2022/08/13 05:10:49;;;;;;;11.65;8.05;;;;;;;15.09;66.11;101533.44;5004249;28;20030;-67
2022/08/13 05:13:28;;;;;;;12.80;7.35;;;;;;;15.10;66.54;101535.16;5006975;28;20049;-64
2022/08/13 05:15:56;;;;;;;10.00;7.80;;;;;;;15.11;66.43;101542.38;4986724;28;20057;-65
2022/08/13 05:18:22;;;;;;;9.77;7.97;;;;;;;15.12;67.31;101544.16;4987386;28;20131;-65
2022/08/13 05:20:49;;;;;;;9.73;7.22;;;;;;;15.16;65.88;101537.44;5001468;28;20791;-66
2022/08/13 05:23:14;;;;;;;9.10;7.53;;;;;;;15.14;66.33;101539.41;4986795;28;20582;-65
2022/08/13 05:25:41;;;;;;;9.95;7.45;;;;;;;15.17;66.50;101544.66;4987159;28;20094;-66
2022/08/13 05:28:08;;;;;;;12.77;7.80;;;;;;;15.19;66.11;101542.66;4986208;28;20085;-66
2022/08/13 05:30:34;;;;;;;9.45;8.13;;;;;;;15.22;65.61;101540.53;4987136;28;20545;-66
2022/08/13 05:33:00;;;;;;;12.15;8.27;;;;;;;15.27;65.62;101552.00;5006192;28;20142;-65
2022/08/13 05:35:27;;;;;;;11.48;8.32;;;;;;;15.30;65.92;101546.28;4991647;28;20176;-66
2022/08/13 05:37:53;;;;;;;11.18;7.63;;;;;;;15.37;65.76;101546.63;4986815;28;20034;-66
2022/08/13 05:40:18;;;;;;;12.73;8.05;;;;;;;15.41;66.22;101550.00;4986429;28;20545;-66
2022/08/13 05:42:44;;;;;;;10.43;7.50;;;;;;;15.45;67.01;101543.28;4999481;28;20062;-66
2022/08/13 05:45:10;;;;;;;9.07;7.03;;;;;;;15.50;66.24;101549.25;4986383;28;20077;-66
2022/08/13 05:47:36;;;;;;;10.50;7.05;;;;;;;15.54;66.23;101546.13;4986712;28;20238;-68
2022/08/13 05:50:08;;;;;;;9.52;7.75;;;;;;;15.60;65.23;101547.50;4986263;28;20034;-67
2022/08/13 05:52:35;;;;;;;10.70;7.73;;;;;;;15.65;65.61;101541.66;4985851;28;20508;-66
2022/08/13 05:55:03;;;;;;;10.25;8.25;;;;;;;15.69;66.97;101541.28;4986336;28;20050;-66
2022/08/13 05:57:29;;;;;;;11.82;7.35;;;;;;;15.78;65.53;101546.00;4999703;28;20050;-66
2022/08/13 06:05:22;;;;;;;8.35;6.85;;;;;;;16.04;65.18;101545.69;4991672;28;20045;-67
2022/08/13 06:07:48;;;;;;;9.77;7.78;;;;;;;16.09;65.44;101546.19;4985478;28;20497;-66
2022/08/13 06:10:14;;;;;;;12.57;7.80;;;;;;;16.15;65.88;101540.16;4986044;28;20030;-66
2022/08/13 06:12:42;;;;;;;11.13;8.02;;;;;;;16.18;66.93;101550.91;4985823;28;20041;-66
2022/08/13 06:15:10;;;;;;;11.70;8.15;;;;;;;16.23;65.49;101545.03;4985907;28;20057;-69
2022/08/13 06:17:37;;;;;;;12.23;8.27;;;;;;;16.30;65.59;101549.84;4986091;28;20054;-65
2022/08/13 06:20:04;;;;;;;16.08;7.65;;;;;;;16.38;66.15;101545.59;4986101;28;20111;-66
2022/08/13 06:22:33;;;;;;;10.95;7.72;;;;;;;16.46;66.45;101537.53;4983553;28;20046;-67
2022/08/13 06:25:06;;;;;;;10.95;7.82;;;;;;;16.53;67.21;101542.38;4986160;28;20468;-68
2022/08/13 06:27:32;;;;;;;9.57;8.38;;;;;;;16.59;67.30;101543.72;4984982;28;20067;-67
2022/08/13 06:29:58;;;;;;;23.42;9.18;;;;;;;16.69;67.30;101543.78;5006094;28;20049;-66
2022/08/13 06:32:24;;;;;;;28.52;7.80;;;;;;;16.77;66.15;101544.03;5001527;28;20030;-66
2022/08/13 06:34:51;;;;;;;30.13;8.45;;;;;;;16.82;67.45;101548.09;4995802;28;20694;-65
2022/08/13 06:37:17;;;;;;;22.02;7.65;;;;;;;16.87;67.12;101552.31;4984791;28;20038;-65
2022/08/13 06:39:44;;;;;;;20.38;8.38;;;;;;;16.98;66.42;101546.78;4986210;28;20042;-66
2022/08/13 06:42:10;;;;;;;14.35;7.00;;;;;;;17.06;65.65;101553.31;4990806;28;20101;-69
2022/08/13 06:44:40;;;;;;;9.25;6.65;;;;;;;17.16;65.29;101552.50;5019371;28;20037;-66
2022/08/13 06:47:06;;;;;;;11.07;7.85;;;;;;;17.21;65.89;101551.09;5002577;28;20108;-65
2022/08/13 06:49:34;;;;;;;10.63;7.57;;;;;;;17.31;63.68;101553.91;5001548;28;20038;-66
2022/08/13 06:52:01;;;;;;;10.30;7.30;;;;;;;17.39;64.14;101555.94;5001022;28;20038;-66
2022/08/13 06:54:27;;;;;;;9.25;6.97;;;;;;;17.50;63.69;101551.22;5004649;28;20044;-66
2022/08/13 06:56:55;;;;;;;11.00;6.78;;;;;;;17.61;64.01;101555.75;4996975;28;20523;-67
2022/08/13 06:59:23;;;;;;;13.38;7.90;;;;;;;17.69;63.18;101555.94;5002838;28;20029;-65
2022/08/13 07:01:53;;;;;;;11.57;7.15;;;;;;;17.76;63.37;101553.50;5001631;28;20051;-65
2022/08/13 07:04:20;;;;;;;11.07;7.60;;;;;;;17.85;63.30;101549.91;4998812;28;20041;-66
2022/08/13 07:06:49;;;;;;;13.18;7.70;;;;;;;17.98;62.72;101553.28;5003570;28;20097;-65
2022/08/13 07:09:17;;;;;;;15.27;7.63;;;;;;;18.09;63.20;101566.03;5001504;28;20094;-66
2022/08/13 07:11:44;;;;;;;10.05;7.10;;;;;;;18.17;62.22;101560.69;5000807;28;20034;-66
2022/08/13 07:14:10;;;;;;;9.75;7.05;;;;;;;18.26;62.02;101554.31;5003277;28;20481;-66
2022/08/13 07:16:36;;;;;;;10.48;6.72;;;;;;;18.36;61.25;101555.19;5002015;28;20034;-65
2022/08/13 07:19:03;;;;;;;9.48;6.38;;;;;;;18.57;58.25;101555.06;5001527;28;20041;-68
2022/08/13 07:21:30;;;;;;;8.00;6.55;;;;;;;18.76;59.09;101556.09;5003365;28;20469;-65
2022/08/13 07:23:56;;;;;;;11.50;6.72;;;;;;;18.85;59.59;101563.50;5004189;28;20049;-66
2022/08/13 07:26:27;;;;;;;10.27;7.03;;;;;;;18.97;58.12;101559.53;5002134;28;20058;-66
2022/08/13 07:28:53;;;;;;;14.00;6.65;;;;;;;19.11;59.09;101558.19;5001295;28;20184;-65
2022/08/13 07:31:29;;;;;;;9.05;6.22;;;;;;;19.18;58.98;101547.44;5002535;28;20540;-66
2022/08/13 07:33:58;;;;;;;13.05;6.13;;;;;;;19.28;58.37;101553.81;4995190;28;20141;-66
2022/08/13 07:36:27;;;;;;;7.55;6.15;;;;;;;19.38;58.28;101552.72;5004685;28;20037;-66
2022/08/13 07:38:53;;;;;;;12.40;6.50;;;;;;;19.47;59.44;101561.13;5011633;28;20137;-67
2022/08/13 07:41:20;;;;;;;13.10;5.57;;;;;;;19.59;58.18;101566.31;4988894;28;20122;-66
2022/08/13 07:43:47;;;;;;;12.82;6.80;;;;;;;19.68;58.54;101561.81;4988045;28;20073;-67
2022/08/13 07:46:17;;;;;;;8.45;6.50;;;;;;;19.77;57.58;101560.88;4988695;28;20031;-67
2022/08/13 07:48:49;;;;;;;7.88;5.57;;;;;;;19.84;57.27;101552.84;5003184;28;20124;-67
2022/08/13 07:51:19;;;;;;;14.30;6.50;;;;;;;19.95;56.79;101562.81;4993840;28;20038;-65
2022/08/13 07:53:55;;;;;;;11.00;5.63;;;;;;;20.05;56.73;101561.75;4988103;28;20038;-65
2022/08/13 07:56:29;;;;;;;9.82;5.38;;;;;;;20.24;54.55;101560.75;4988167;28;20038;-66
2022/08/13 07:58:58;;;;;;;11.05;5.60;;;;;;;20.51;53.94;101557.03;5001962;28;20492;-65
2022/08/13 08:01:26;;;;;;;10.70;5.47;;;;;;;20.91;54.29;101561.19;5001815;28;20481;-67
2022/08/13 08:03:54;;;;;;;10.80;6.07;;;;;;;21.47;53.30;101556.22;5005923;28;20108;-65
2022/08/13 08:06:20;;;;;;;8.85;5.85;;;;;;;21.96;51.22;101561.97;4987774;28;20026;-65
2022/08/13 08:08:47;;;;;;;13.60;5.88;;;;;;;22.35;50.15;101556.75;4989141;28;20044;-68
2022/08/13 08:14:00;;;;;;;8.88;4.75;;;;;;;23.59;46.48;101553.69;5001944;28;20593;-67
2022/08/13 08:16:29;;;;;;;10.90;4.55;;;;;;;24.38;45.69;101560.97;5012309;28;20205;-65
2022/08/13 08:18:55;;;;;;;8.93;4.68;;;;;;;24.74;44.13;101560.38;4988618;28;20066;-65
2022/08/13 08:21:23;;;;;;;10.77;4.70;;;;;;;25.10;43.48;101560.59;4987547;28;20042;-66
2022/08/13 08:23:49;;;;;;;7.63;3.85;;;;;;;25.59;43.01;101570.34;4987338;28;20437;-65
2022/08/13 08:26:15;;;;;;;12.90;4.68;;;;;;;25.63;41.28;101566.13;4988085;28;20050;-65
2022/08/13 08:28:41;;;;;;;10.98;3.80;;;;;;;26.04;41.42;101572.06;5002917;28;20040;-65
2022/08/13 08:31:07;;;;;;;9.40;3.92;;;;;;;26.34;41.68;101564.47;5005196;28;20112;-66
2022/08/13 08:33:34;;;;;;;8.00;4.03;;;;;;;27.00;38.93;101561.53;5006908;28;20120;-65
2022/08/13 08:36:02;;;;;;;8.40;4.30;;;;;;;27.50;38.80;101565.16;4987688;28;20038;-65
2022/08/13 08:44:00;;;;;;;5.30;3.35;;;;;;;28.24;36.76;101567.25;5000008;28;20029;-66
2022/08/13 08:46:27;;;;;;;9.15;3.53;;;;;;;28.66;36.57;101563.31;5004831;28;20030;-68
2022/08/13 08:48:54;;;;;;;5.78;3.03;;;;;;;29.02;36.03;101562.09;5005183;28;20030;-66
2022/08/13 08:51:20;;;;;;;7.20;2.83;;;;;;;29.23;36.65;101563.78;5005166;28;20097;-66
2022/08/13 08:53:47;;;;;;;10.30;2.80;;;;;;;29.54;35.45;101568.72;5005698;28;20030;-67
2022/08/13 08:56:15;;;;;;;8.30;3.10;;;;;;;29.70;33.54;101562.66;5004533;28;20124;-66
2022/08/13 08:58:42;;;;;;;38.28;5.40;;;;;;;29.91;33.69;101560.66;4989843;28;20038;-66
2022/08/13 09:01:10;;;;;;;14.70;3.25;;;;;;;29.89;32.32;101560.88;4991840;28;20030;-66
2022/08/13 09:03:39;;;;;;;9.32;3.35;;;;;;;29.90;32.28;101558.94;5005624;28;20037;-67
2022/08/13 09:06:08;;;;;;;6.88;2.90;;;;;;;30.24;34.65;101550.16;4987142;28;20049;-66
2022/08/13 09:08:35;;;;;;;83.45;8.00;;;;;;;30.60;33.30;101545.84;4986161;28;20038;-67
2022/08/13 09:11:01;;;;;;;24.52;3.92;;;;;;;30.89;32.44;101552.78;4997294;28;20014;-66
2022/08/13 09:13:27;;;;;;;10.15;2.58;;;;;;;30.94;32.21;101543.66;4994126;28;20457;-68
2022/08/13 09:15:55;;;;;;;4.90;2.60;;;;;;;31.18;34.84;101542.78;5003506;28;20180;-66
2022/08/13 09:18:21;;;;;;;5.90;2.55;;;;;;;31.42;30.02;101541.06;5004115;28;20046;-66
2022/08/13 09:20:47;;;;;;;5.20;2.20;;;;;;;31.64;29.89;101537.81;5000542;28;20045;-66
2022/08/13 09:23:15;;;;;;;8.65;2.30;;;;;;;31.75;29.01;101548.25;5000356;28;20493;-67
2022/08/13 09:25:48;;;;;;;6.95;1.90;;;;;;;32.03;31.72;101542.09;5005510;28;20034;-66
2022/08/13 09:28:23;;;;;;;5.72;2.50;;;;;;;32.36;30.23;101543.59;4998692;28;20095;-67
2022/08/13 09:30:51;;;;;;;5.03;2.25;;;;;;;32.24;29.14;101538.78;5002316;28;20142;-66
2022/08/13 09:33:18;;;;;;;7.40;1.80;;;;;;;32.37;30.60;101540.59;5005362;28;20232;-67
2022/08/13 09:35:44;;;;;;;5.20;2.10;;;;;;;32.57;28.25;101539.44;4999161;28;20041;-66
2022/08/13 09:38:10;;;;;;;6.65;2.08;;;;;;;32.74;28.88;101541.31;5005790;28;20037;-65
2022/08/13 09:40:44;;;;;;;4.07;1.83;;;;;;;32.91;28.20;101549.09;4987930;28;20084;-66
2022/08/13 09:43:31;;;;;;;2.70;2.00;;;;;;;32.90;27.11;101544.53;4986549;28;20813;-67
2022/08/13 09:45:56;;;;;;;6.78;2.22;;;;;;;33.00;26.13;101542.00;4986674;28;20104;-70
2022/08/13 09:48:24;;;;;;;6.85;1.85;;;;;;;32.99;27.67;101537.47;4987211;28;20505;-66
2022/08/13 09:50:52;;;;;;;2.63;1.85;;;;;;;33.16;27.55;101540.44;4985959;28;20121;-66
2022/08/13 09:53:18;;;;;;;5.78;1.92;;;;;;;33.54;29.13;101545.59;4986043;28;20053;-66
2022/08/13 09:55:45;;;;;;;5.43;2.10;;;;;;;33.42;26.69;101539.06;4986721;28;20438;-66
2022/08/13 09:58:11;;;;;;;3.25;2.00;;;;;;;33.39;27.91;101531.09;4985977;28;20034;-66
2022/08/13 10:00:37;;;;;;;9.27;2.00;;;;;;;33.44;27.18;101534.09;4985691;28;20030;-65
2022/08/13 10:03:06;;;;;;;3.60;1.80;;;;;;;33.72;24.92;101522.03;5006071;28;20077;-66
2022/08/13 10:05:34;;;;;;;3.58;1.90;;;;;;;33.78;25.16;101525.81;4991130;28;20050;-66
2022/08/13 10:08:01;;;;;;;5.57;2.00;;;;;;;33.90;24.71;101518.16;5001499;28;20183;-67
2022/08/13 10:10:27;;;;;;;2.67;1.50;;;;;;;33.85;24.00;101518.91;5006237;28;20465;-67
2022/08/13 10:12:52;;;;;;;6.20;1.50;;;;;;;34.08;25.99;101514.31;4986434;28;20022;-66
2022/08/13 10:15:19;;;;;;;6.03;1.80;;;;;;;34.37;24.69;101518.00;4986068;28;20473;-69
2022/08/13 10:17:48;;;;;;;3.70;1.60;;;;;;;34.46;24.90;101505.19;4986230;28;20078;-66
2022/08/13 10:20:21;;;;;;;2.03;1.63;;;;;;;34.42;23.03;101504.84;4985366;28;20058;-67
2022/08/13 10:22:48;;;;;;;4.78;1.80;;;;;;;34.88;26.20;101502.84;4985835;28;20109;-67
2022/08/13 10:25:14;;;;;;;5.93;1.80;;;;;;;34.89;25.79;101504.56;5000964;28;20046;-66
2022/08/13 10:27:40;;;;;;;1.75;1.52;;;;;;;34.73;22.51;101505.41;4985162;28;20033;-65
2022/08/13 10:30:06;;;;;;;3.53;1.58;;;;;;;34.61;21.87;101508.31;4986283;28;20080;-66
2022/08/13 10:32:32;;;;;;;2.08;1.67;;;;;;;33.81;22.69;101500.75;5001200;28;20117;-67
2022/08/13 10:35:00;;;;;;;3.08;1.80;;;;;;;33.80;23.54;101501.84;4995757;28;20046;-67
2022/08/13 10:37:28;;;;;;;2.70;1.73;;;;;;;33.72;21.37;101493.78;4985612;28;20034;-67
2022/08/13 10:39:57;;;;;;;3.13;1.48;;;;;;;33.83;23.09;101500.50;4986673;28;20041;-66
2022/08/13 10:42:24;;;;;;;4.07;1.58;;;;;;;33.90;22.18;101499.25;4985493;28;20093;-66
2022/08/13 10:44:51;;;;;;;3.78;1.55;;;;;;;34.14;23.53;101502.88;4986362;28;20137;-66
2022/08/13 10:47:24;;;;;;;4.18;1.48;;;;;;;34.51;22.18;101494.00;4985796;28;20121;-66
2022/08/13 10:49:52;;;;;;;2.92;1.40;;;;;;;34.43;20.51;101497.22;4985720;28;20465;-66
2022/08/13 10:52:19;;;;;;;8.77;1.48;;;;;;;34.57;23.39;101495.81;4985093;28;20046;-66
2022/08/13 10:54:48;;;;;;;3.35;1.50;;;;;;;34.78;21.73;101482.88;4985592;28;20042;-66
2022/08/13 10:57:14;;;;;;;4.47;1.20;;;;;;;35.17;21.73;101483.81;4999000;28;20053;-66
2022/08/13 10:59:43;;;;;;;1.60;1.30;;;;;;;35.08;18.69;101476.91;4986186;28;20073;-66
2022/08/13 11:02:09;;;;;;;4.85;1.15;;;;;;;35.22;22.03;101481.06;4997567;28;20584;-66
2022/08/13 11:04:36;;;;;;;2.75;1.38;;;;;;;35.47;20.72;101483.44;4998767;28;20394;-66
2022/08/13 11:07:03;;;;;;;1.48;1.17;;;;;;;35.72;21.96;101490.53;4983710;28;20038;-66
2022/08/13 11:09:29;;;;;;;4.53;1.40;;;;;;;35.75;20.24;101481.53;4985752;28;20137;-66
2022/08/13 11:11:57;;;;;;;1.98;1.30;;;;;;;35.68;20.53;101487.41;4986034;28;20038;-66
2022/08/13 11:14:23;;;;;;;3.00;1.20;;;;;;;35.70;19.42;101489.97;4989687;28;20126;-66
2022/08/13 11:19:20;;;;;;;2.25;1.30;;;;;;;35.85;20.38;101477.97;4989174;28;20045;-66
2022/08/13 11:21:45;;;;;;;2.88;1.30;;;;;;;36.22;21.61;101478.16;4989044;28;20129;-65
2022/08/13 11:24:12;;;;;;;3.25;1.60;;;;;;;35.93;18.26;101475.53;4989006;28;20042;-65
2022/08/13 11:26:38;;;;;;;5.00;1.40;;;;;;;36.09;20.11;101470.91;4989514;28;20104;-65
2022/08/13 11:29:04;;;;;;;2.58;1.10;;;;;;;36.14;19.06;101470.13;4988888;28;20114;-65
2022/08/13 11:31:30;;;;;;;10.57;1.42;;;;;;;36.33;20.97;101470.59;5006018;28;20114;-66
2022/08/13 11:33:55;;;;;;;3.95;1.48;;;;;;;36.56;19.01;101461.81;5007859;28;20072;-66
2022/08/13 11:36:21;;;;;;;3.10;1.17;;;;;;;36.81;18.89;101466.84;4988670;28;20034;-67
2022/08/13 11:38:47;;;;;;;2.53;1.20;;;;;;;36.49;18.87;101466.84;4987950;28;20146;-68
2022/08/13 11:41:12;;;;;;;3.30;1.20;;;;;;;36.51;19.98;101459.78;4989254;28;20050;-66
2022/08/13 11:43:38;;;;;;;5.07;1.30;;;;;;;36.47;18.45;101458.59;4988409;28;20069;-66
2022/08/13 11:46:03;;;;;;;5.15;1.40;;;;;;;36.59;19.59;101460.41;4988660;28;20030;-66
2022/08/13 11:48:28;;;;;;;2.17;1.33;;;;;;;36.62;17.75;101459.88;4988951;28;20125;-66
2022/08/13 11:50:57;;;;;;;2.63;1.50;;;;;;;36.57;17.85;101454.16;4988685;28;20117;-66
2022/08/13 11:53:24;;;;;;;2.58;1.40;;;;;;;36.41;17.78;101456.78;4988970;28;20050;-66
2022/08/13 11:55:49;;;;;;;2.47;1.30;;;;;;;36.05;18.52;101455.59;4988558;28;20031;-66